createdAt,value
2023-03-14T00:00:46.717Z,7.78
2023-03-14T00:03:15.195Z,6.75
2023-03-14T00:05:43.693Z,6.60
2023-03-14T00:08:12.255Z,4.25
2023-03-14T00:10:40.723Z,5.32
2023-03-14T00:13:10.767Z,6.82
2023-03-14T00:15:39.284Z,4.80
2023-03-14T00:18:07.736Z,2.78
2023-03-14T00:20:36.153Z,4.82
2023-03-14T00:23:04.581Z,8.43
2023-03-14T00:25:33.056Z,5.93
2023-03-14T00:28:01.493Z,5.18
2023-03-14T00:30:31.263Z,7.53
2023-03-14T00:32:59.732Z,6.90
2023-03-14T00:35:28.138Z,6.18
2023-03-14T00:37:56.576Z,7.40
2023-03-14T00:40:24.990Z,10.52
2023-03-14T00:42:53.593Z,5.60
2023-03-14T00:45:22.052Z,6.43
2023-03-14T00:47:51.865Z,5.15
2023-03-14T00:50:20.413Z,3.70
2023-03-14T00:52:49.872Z,3.88
2023-03-14T00:55:18.278Z,9.32
2023-03-14T00:57:46.721Z,5.10
2023-03-14T01:00:15.674Z,5.38
2023-03-14T01:02:44.151Z,5.70
2023-03-14T01:05:13.990Z,5.38
2023-03-14T01:07:42.604Z,3.63
2023-03-14T01:10:11.848Z,3.92
2023-03-14T01:12:40.260Z,5.03
2023-03-14T01:15:09.279Z,3.75
2023-03-14T01:17:38.942Z,8.10
2023-03-14T01:20:10.059Z,6.13
2023-03-14T01:22:40.934Z,7.28
2023-03-14T01:25:10.211Z,5.90
2023-03-14T01:27:38.739Z,7.45
2023-03-14T01:30:08.992Z,5.63
2023-03-14T01:32:37.836Z,5.43
2023-03-14T01:35:06.647Z,4.13
2023-03-14T01:37:35.180Z,6.30
2023-03-14T01:40:07.166Z,5.97
2023-03-14T01:42:35.777Z,4.43
2023-03-14T01:45:04.416Z,6.45
2023-03-14T01:47:33.301Z,5.15
2023-03-14T01:50:02.590Z,6.90
2023-03-14T01:52:34.297Z,6.97
2023-03-14T01:55:05.108Z,7.05
2023-03-14T01:57:35.840Z,8.23
2023-03-14T02:00:12.705Z,4.20
2023-03-14T02:02:43.144Z,7.97
2023-03-14T02:05:11.892Z,4.65
2023-03-14T02:07:42.927Z,4.30
2023-03-14T02:10:12.234Z,5.60
2023-03-14T02:12:42.167Z,5.43
2023-03-14T02:15:11.268Z,3.28
2023-03-14T02:17:40.532Z,3.58
2023-03-14T02:20:14.965Z,5.55
2023-03-14T02:22:45.158Z,7.88
2023-03-14T02:25:16.585Z,7.78
2023-03-14T02:27:46.692Z,3.25
2023-03-14T02:30:16.846Z,5.47
2023-03-14T02:32:46.931Z,5.78
2023-03-14T02:35:17.195Z,5.28
2023-03-14T02:37:46.959Z,4.22
2023-03-14T02:40:15.451Z,3.58
2023-03-14T02:42:44.087Z,5.30
2023-03-14T02:45:31.299Z,4.38
2023-03-14T02:48:04.821Z,7.57
2023-03-14T02:50:34.411Z,7.78
2023-03-14T02:53:02.909Z,7.25
2023-03-14T02:55:31.328Z,5.60
2023-03-14T02:57:59.764Z,7.03
2023-03-14T03:00:28.316Z,6.03
2023-03-14T03:02:56.835Z,3.72
2023-03-14T03:05:26.708Z,3.22
2023-03-14T03:07:55.198Z,6.25
2023-03-14T03:10:23.594Z,4.68
2023-03-14T03:12:52.262Z,6.18
2023-03-14T03:15:20.736Z,6.30
2023-03-14T03:17:49.208Z,7.15
2023-03-14T03:20:17.832Z,6.47
2023-03-14T03:22:47.677Z,6.30
2023-03-14T03:25:16.097Z,5.85
2023-03-14T03:27:44.523Z,7.60
2023-03-14T03:30:13.336Z,9.02
2023-03-14T03:32:41.947Z,4.90
2023-03-14T03:35:10.821Z,4.30
2023-03-14T03:37:39.414Z,4.10
2023-03-14T03:40:10.059Z,8.00
2023-03-14T03:42:38.800Z,7.13
2023-03-14T03:45:07.602Z,6.40
2023-03-14T03:47:36.029Z,8.50
2023-03-14T03:50:04.641Z,6.22
2023-03-14T03:52:33.047Z,6.28
2023-03-14T03:55:01.495Z,7.25
2023-03-14T03:57:31.492Z,6.05
2023-03-14T03:59:59.985Z,7.15
2023-03-14T04:02:28.396Z,4.40
2023-03-14T04:04:56.930Z,4.38
2023-03-14T04:07:25.523Z,5.57
2023-03-14T04:09:53.998Z,6.82
2023-03-14T04:12:22.404Z,6.50
2023-03-14T04:14:52.311Z,3.55
2023-03-14T04:17:21.756Z,5.13
2023-03-14T04:19:52.609Z,7.28
2023-03-14T04:22:21.079Z,5.22
2023-03-14T04:24:49.559Z,8.63
2023-03-14T04:27:17.972Z,8.52
2023-03-14T04:29:46.423Z,5.35
2023-03-14T04:32:16.412Z,7.53
2023-03-14T04:34:44.896Z,6.47
2023-03-14T04:37:13.403Z,5.70
2023-03-14T04:39:41.967Z,3.17
2023-03-14T04:42:10.387Z,5.60
2023-03-14T04:44:38.857Z,4.68
2023-03-14T04:47:07.332Z,4.30
2023-03-14T04:49:37.264Z,5.13
2023-03-14T04:52:05.994Z,4.30
2023-03-14T04:54:34.598Z,2.15
2023-03-14T04:57:03.335Z,3.60
2023-03-14T04:59:31.826Z,3.10
2023-03-14T05:02:00.382Z,4.57
2023-03-14T05:04:28.925Z,3.20
2023-03-14T05:06:58.690Z,4.15
2023-03-14T05:09:27.156Z,4.15
2023-03-14T05:11:55.580Z,5.63
2023-03-14T05:14:24.037Z,3.92
2023-03-14T05:16:52.435Z,8.60
2023-03-14T05:19:20.844Z,4.25
2023-03-14T05:21:49.274Z,5.97
2023-03-14T05:24:19.089Z,6.28
2023-03-14T05:26:47.506Z,6.82
2023-03-14T05:29:15.983Z,9.70
2023-03-14T05:31:44.467Z,10.02
2023-03-14T05:34:13.100Z,9.05
2023-03-14T05:36:41.575Z,5.80
2023-03-14T05:39:10.060Z,2.45
2023-03-14T05:41:41.333Z,3.95
2023-03-14T05:44:09.823Z,4.57
2023-03-14T05:46:40.259Z,3.30
2023-03-14T05:49:08.705Z,3.33
2023-03-14T05:51:37.116Z,2.08
2023-03-14T05:54:05.684Z,2.85
2023-03-14T05:56:34.526Z,2.92
2023-03-14T05:59:04.291Z,3.53
2023-03-14T06:01:32.888Z,2.35
2023-03-14T06:04:01.354Z,5.75
2023-03-14T06:06:29.808Z,3.47
2023-03-14T06:08:58.320Z,2.97
2023-03-14T06:11:26.797Z,4.65
2023-03-14T06:13:55.328Z,2.42
2023-03-14T06:16:25.232Z,3.20
2023-03-14T06:18:53.671Z,2.30
2023-03-14T06:21:22.354Z,3.97
2023-03-14T06:23:50.793Z,7.57
2023-03-14T06:26:19.374Z,1.45
2023-03-14T06:28:47.803Z,4.43
2023-03-14T06:31:16.334Z,3.13
2023-03-14T06:33:46.345Z,6.20
2023-03-14T06:36:14.879Z,3.22
2023-03-14T06:38:43.376Z,2.17
2023-03-14T06:41:11.839Z,4.65
2023-03-14T06:43:40.248Z,4.97
2023-03-14T06:46:08.997Z,5.60
2023-03-14T06:48:37.453Z,6.65
2023-03-14T06:51:07.683Z,2.10
2023-03-14T06:53:36.311Z,5.85
2023-03-14T06:56:04.753Z,6.25
2023-03-14T06:58:33.234Z,4.78
2023-03-14T07:01:01.837Z,3.17
2023-03-14T07:03:30.344Z,2.30
2023-03-14T07:05:58.818Z,2.17
2023-03-14T07:08:28.621Z,1.30
2023-03-14T07:10:59.350Z,1.00
2023-03-14T07:13:27.765Z,2.17
2023-03-14T07:15:56.242Z,3.75
2023-03-14T07:18:24.855Z,2.90
2023-03-14T07:20:53.323Z,4.55
2023-03-14T07:23:21.738Z,3.88
2023-03-14T07:25:51.792Z,4.70
2023-03-14T07:28:20.223Z,4.45
2023-03-14T07:30:49.902Z,6.65
2023-03-14T07:33:18.483Z,6.82
2023-03-14T07:35:46.933Z,6.18
2023-03-14T07:38:15.387Z,10.45
2023-03-14T07:40:43.790Z,7.32
2023-03-14T07:43:16.488Z,4.68
2023-03-14T07:45:50.827Z,6.25
2023-03-14T07:48:20.053Z,5.10
2023-03-14T07:50:51.157Z,6.13
2023-03-14T07:53:19.621Z,6.28
2023-03-14T07:55:48.639Z,6.68
2023-03-14T07:58:18.439Z,9.27
2023-03-14T08:00:46.984Z,10.15
2023-03-14T08:03:15.392Z,10.02
2023-03-14T08:05:43.830Z,11.13
2023-03-14T08:08:12.530Z,9.15
2023-03-14T08:10:41.046Z,7.30
2023-03-14T08:13:09.761Z,8.10
2023-03-14T08:15:39.751Z,6.00
2023-03-14T08:18:08.623Z,3.42
2023-03-14T08:20:37.107Z,2.75
2023-03-14T08:23:05.705Z,5.22
2023-03-14T08:25:34.329Z,3.10
2023-03-14T08:28:02.803Z,7.15
2023-03-14T08:30:31.328Z,6.20
2023-03-14T08:33:01.226Z,5.45
2023-03-14T08:35:30.011Z,8.30
2023-03-14T08:37:58.443Z,5.47
2023-03-14T08:40:26.866Z,4.90
2023-03-14T08:42:55.373Z,3.95
2023-03-14T08:45:26.706Z,3.47
2023-03-14T08:47:55.182Z,2.60
2023-03-14T08:50:25.324Z,3.22
2023-03-14T08:52:53.912Z,3.53
2023-03-14T08:55:22.554Z,3.22
2023-03-14T08:57:50.989Z,3.40
2023-03-14T09:00:20.225Z,4.35
2023-03-14T09:02:48.895Z,4.50
2023-03-14T09:05:17.610Z,1.90
2023-03-14T09:07:47.672Z,2.30
2023-03-14T09:10:16.290Z,2.92
2023-03-14T09:12:45.075Z,2.33
2023-03-14T09:15:13.927Z,2.08
2023-03-14T09:17:42.563Z,1.50
2023-03-14T09:20:11.682Z,1.48
2023-03-14T09:22:40.303Z,0.85
2023-03-14T09:25:11.606Z,1.55
2023-03-14T09:27:40.300Z,1.30
2023-03-14T09:30:09.714Z,0.98
2023-03-14T09:32:38.254Z,1.45
2023-03-14T09:35:07.011Z,1.23
2023-03-14T09:37:35.485Z,3.00
2023-03-14T09:40:10.429Z,2.65
2023-03-14T09:42:41.770Z,1.98
2023-03-14T09:45:13.921Z,3.17
2023-03-14T09:47:56.397Z,2.28
2023-03-14T09:50:28.064Z,3.03
2023-03-14T09:52:59.702Z,3.20
2023-03-14T09:55:28.662Z,3.03
2023-03-14T09:58:01.095Z,4.22
2023-03-14T10:00:31.522Z,2.40
2023-03-14T10:03:03.330Z,3.75
2023-03-14T10:05:31.795Z,2.97
2023-03-14T10:08:00.339Z,3.20
2023-03-14T10:10:29.226Z,4.65
2023-03-14T10:13:00.303Z,3.75
2023-03-14T10:15:29.902Z,3.28
2023-03-14T10:17:58.393Z,2.47
2023-03-14T10:20:34.568Z,3.58
2023-03-14T10:23:04.399Z,5.72
2023-03-14T10:25:33.841Z,2.83
2023-03-14T10:28:04.684Z,3.28
2023-03-14T10:30:36.257Z,3.67
2023-03-14T10:33:10.995Z,3.67
2023-03-14T10:35:39.739Z,3.38
2023-03-14T10:38:08.203Z,4.85
2023-03-14T10:40:39.297Z,6.53
2023-03-14T10:43:10.237Z,3.72
2023-03-14T10:45:43.426Z,3.00
2023-03-14T10:48:22.664Z,1.85
2023-03-14T10:50:51.934Z,3.03
2023-03-14T10:53:20.848Z,3.88
2023-03-14T10:55:50.304Z,3.28
2023-03-14T10:58:24.133Z,3.55
2023-03-14T11:00:55.353Z,4.40
2023-03-14T11:03:24.615Z,5.47
2023-03-14T11:05:56.707Z,3.72
2023-03-14T11:08:28.004Z,3.10
2023-03-14T11:10:57.698Z,3.75
2023-03-14T11:13:28.082Z,3.17
2023-03-14T11:16:06.968Z,2.10
2023-03-14T11:18:54.353Z,2.35
2023-03-14T11:21:26.876Z,2.90
2023-03-14T11:24:01.474Z,5.25
2023-03-14T11:26:35.111Z,4.28
2023-03-14T11:29:15.260Z,4.07
2023-03-14T11:31:47.084Z,4.15
2023-03-14T11:34:18.657Z,3.25
2023-03-14T11:36:54.925Z,3.13
2023-03-14T11:39:23.445Z,5.43
2023-03-14T11:41:52.974Z,3.80
2023-03-14T11:44:24.608Z,3.72
2023-03-14T11:46:55.689Z,2.90
2023-03-14T11:49:30.679Z,1.67
2023-03-14T11:52:01.439Z,3.10
2023-03-14T11:54:35.997Z,2.58
2023-03-14T11:57:06.344Z,2.90
2023-03-14T11:59:44.225Z,2.50
2023-03-14T12:02:16.761Z,5.05
2023-03-14T12:04:52.588Z,4.30
2023-03-14T12:07:22.763Z,2.97
2023-03-14T12:09:52.531Z,5.97
2023-03-14T12:12:23.145Z,3.67
2023-03-14T12:14:57.448Z,6.13
2023-03-14T12:17:27.939Z,7.78
2023-03-14T12:20:07.051Z,8.07
2023-03-14T12:22:37.317Z,6.75
2023-03-14T12:25:07.967Z,5.97
2023-03-14T12:28:05.787Z,7.88
2023-03-14T12:30:36.691Z,4.80
2023-03-14T12:33:29.276Z,5.63
2023-03-14T12:36:01.729Z,5.95
2023-03-14T12:38:40.368Z,7.95
2023-03-14T12:41:15.091Z,7.20
2023-03-14T12:43:43.700Z,6.57
2023-03-14T12:46:22.924Z,6.30
2023-03-14T12:48:52.805Z,10.07
2023-03-14T12:51:21.981Z,12.68
2023-03-14T12:54:14.332Z,8.55
2023-03-14T12:56:53.231Z,6.10
2023-03-14T12:59:31.370Z,12.15
2023-03-14T13:02:03.255Z,11.65
2023-03-14T13:04:39.798Z,10.02
2023-03-14T13:07:13.802Z,8.70
2023-03-14T13:09:59.851Z,9.07
2023-03-14T13:12:40.429Z,7.68
2023-03-14T13:15:17.756Z,10.13
2023-03-14T13:17:49.221Z,10.88
2023-03-14T13:20:20.169Z,10.13
2023-03-14T13:22:50.144Z,14.70
2023-03-14T13:25:19.574Z,11.20
2023-03-14T13:27:48.290Z,11.07
2023-03-14T13:30:21.853Z,13.05
2023-03-14T13:32:52.465Z,13.48
2023-03-14T13:35:22.528Z,13.75
2023-03-14T13:38:04.194Z,12.73
2023-03-14T13:40:38.827Z,12.43
2023-03-14T13:43:09.413Z,12.23
2023-03-14T13:45:53.268Z,15.68
2023-03-14T13:48:24.178Z,12.63
2023-03-14T13:50:54.157Z,12.23
2023-03-14T13:53:22.633Z,13.23
2023-03-14T13:55:51.890Z,14.32
2023-03-14T13:58:24.937Z,11.48
2023-03-14T14:01:01.718Z,12.15
2023-03-14T14:03:33.608Z,13.40
2023-03-14T14:06:02.160Z,15.73
2023-03-14T14:08:30.811Z,13.38
2023-03-14T14:11:02.179Z,9.60
2023-03-14T14:13:33.430Z,13.45
2023-03-14T14:16:03.162Z,8.73
2023-03-14T14:18:34.060Z,13.63
2023-03-14T14:21:03.355Z,10.75
2023-03-14T14:23:32.681Z,10.63
2023-03-14T14:26:01.634Z,9.00
2023-03-14T14:28:31.499Z,5.03
2023-03-14T14:31:04.301Z,8.02
2023-03-14T14:33:40.834Z,7.18
2023-03-14T14:36:16.846Z,6.35
2023-03-14T14:38:45.380Z,5.80
2023-03-14T14:41:14.588Z,10.88
2023-03-14T14:43:43.736Z,6.30
2023-03-14T14:46:13.052Z,5.93
2023-03-14T14:48:43.185Z,5.07
2023-03-14T14:51:11.747Z,7.50
2023-03-14T14:53:41.049Z,5.20
2023-03-14T14:56:10.955Z,7.05
2023-03-14T14:58:42.725Z,9.15
2023-03-14T15:01:14.855Z,4.30
2023-03-14T15:03:45.292Z,11.23
2023-03-14T15:06:14.953Z,8.93
2023-03-14T15:08:43.979Z,5.20
2023-03-14T15:11:18.788Z,6.13
2023-03-14T15:13:47.597Z,9.52
2023-03-14T15:16:18.295Z,11.15
2023-03-14T15:18:49.445Z,5.55
2023-03-14T15:21:17.917Z,9.50
2023-03-14T15:23:46.516Z,6.97
2023-03-14T15:26:16.549Z,5.50
2023-03-14T15:28:45.184Z,7.15
2023-03-14T15:31:14.055Z,6.10
2023-03-14T15:33:42.516Z,3.97
2023-03-14T15:36:19.316Z,5.75
2023-03-14T15:38:47.774Z,5.45
2023-03-14T15:41:16.693Z,6.65
2023-03-14T15:43:45.169Z,6.35
2023-03-14T15:46:13.801Z,6.65
2023-03-14T15:48:43.269Z,3.55
2023-03-14T15:51:11.674Z,9.55
2023-03-14T15:53:41.713Z,7.25
2023-03-14T15:56:10.850Z,5.60
2023-03-14T15:58:41.365Z,7.80
2023-03-14T16:01:10.778Z,5.68
2023-03-14T16:03:39.373Z,5.28
2023-03-14T16:06:08.064Z,8.95
2023-03-14T16:08:36.510Z,5.15
2023-03-14T16:11:06.391Z,6.15
2023-03-14T16:13:34.871Z,7.60
2023-03-14T16:16:04.119Z,4.43
2023-03-14T16:18:33.874Z,5.03
2023-03-14T16:21:03.449Z,10.05
2023-03-14T16:23:33.917Z,5.53
2023-03-14T16:26:05.400Z,8.40
2023-03-14T16:28:35.525Z,7.00
2023-03-14T16:31:04.095Z,6.28
2023-03-14T16:33:32.921Z,7.07
2023-03-14T16:36:05.985Z,7.85
2023-03-14T16:38:34.976Z,4.68
2023-03-14T16:41:05.949Z,7.43
2023-03-14T16:43:37.640Z,5.38
2023-03-14T16:46:07.623Z,5.10
2023-03-14T16:48:36.544Z,6.28
2023-03-14T16:51:04.999Z,9.07
2023-03-14T16:53:33.571Z,3.17
2023-03-14T16:56:01.990Z,5.70
2023-03-14T16:58:31.503Z,5.35
2023-03-14T17:01:11.540Z,12.25
2023-03-14T17:03:40.440Z,8.50
2023-03-14T17:06:09.535Z,6.72
2023-03-14T17:08:37.968Z,3.25
2023-03-14T17:11:06.905Z,7.35
2023-03-14T17:13:35.812Z,8.48
2023-03-14T17:16:06.319Z,6.78
2023-03-14T17:18:35.006Z,4.75
2023-03-14T17:21:03.457Z,9.82
2023-03-14T17:23:32.848Z,3.65
2023-03-14T17:26:01.632Z,8.73
2023-03-14T17:28:30.252Z,8.65
2023-03-14T17:31:10.072Z,10.95
2023-03-14T17:33:38.610Z,7.25
2023-03-14T17:36:07.875Z,9.80
2023-03-14T17:38:36.829Z,2.80
2023-03-14T17:41:05.595Z,8.68
2023-03-14T17:43:34.074Z,4.85
2023-03-14T17:46:03.153Z,6.15
2023-03-14T17:48:33.010Z,2.85
2023-03-14T17:51:02.405Z,7.88
2023-03-14T17:53:31.264Z,6.18
2023-03-14T17:55:59.966Z,7.78
2023-03-14T17:58:28.571Z,4.20
2023-03-14T18:00:57.832Z,5.95
2023-03-14T18:03:26.368Z,7.38
2023-03-14T18:05:56.685Z,8.10
2023-03-14T18:08:25.143Z,5.50
2023-03-14T18:10:56.155Z,3.35
2023-03-14T18:13:24.773Z,7.35
2023-03-14T18:15:53.481Z,8.80
2023-03-14T18:18:22.272Z,6.50
2023-03-14T18:20:51.847Z,7.47
2023-03-14T18:23:21.993Z,8.60
2023-03-14T18:25:51.041Z,9.75
2023-03-14T18:28:21.078Z,6.28
2023-03-14T18:30:52.625Z,5.43
2023-03-14T18:33:22.883Z,8.57
2023-03-14T18:35:52.475Z,5.72
2023-03-14T18:38:23.922Z,8.43
2023-03-14T18:40:53.408Z,5.85
2023-03-14T18:43:21.864Z,8.38
2023-03-14T18:45:52.755Z,7.85
2023-03-14T18:48:25.028Z,7.32
2023-03-14T18:50:53.566Z,5.18
2023-03-14T18:53:28.277Z,9.52
2023-03-14T18:55:56.706Z,5.30
2023-03-14T18:58:28.522Z,11.07
2023-03-14T19:00:58.602Z,5.97
2023-03-14T19:03:27.438Z,6.55
2023-03-14T19:05:56.614Z,8.77
2023-03-14T19:08:26.993Z,9.23
2023-03-14T19:10:57.458Z,8.40
2023-03-14T19:13:25.967Z,7.65
2023-03-14T19:15:54.431Z,8.95
2023-03-14T19:18:23.003Z,8.25
2023-03-14T19:20:57.793Z,8.40
2023-03-14T19:23:28.092Z,5.93
2023-03-14T19:25:57.110Z,10.73
2023-03-14T19:28:26.049Z,9.18
2023-03-14T19:30:54.570Z,9.68
2023-03-14T19:33:23.226Z,14.88
2023-03-14T19:35:51.752Z,17.83
2023-03-14T19:38:20.241Z,14.38
2023-03-14T19:40:52.699Z,8.52
2023-03-14T19:43:21.267Z,9.57
2023-03-14T19:45:49.855Z,12.50
2023-03-14T19:48:18.430Z,16.10
2023-03-14T19:50:46.982Z,7.88
2023-03-14T19:53:15.424Z,14.90
2023-03-14T19:55:46.803Z,10.25
2023-03-14T19:58:16.597Z,10.10
2023-03-14T20:00:45.949Z,11.57
2023-03-14T20:03:14.793Z,19.17
2023-03-14T20:05:46.729Z,7.78
2023-03-14T20:08:15.378Z,8.32
2023-03-14T20:10:44.008Z,7.70
2023-03-14T20:13:21.329Z,12.68
2023-03-14T20:15:54.158Z,10.20
2023-03-14T20:18:24.380Z,9.07
2023-03-14T20:20:53.388Z,9.02
2023-03-14T20:23:22.084Z,7.30
2023-03-14T20:25:55.131Z,9.57
2023-03-14T20:28:23.629Z,10.45
2023-03-14T20:30:53.839Z,8.93
2023-03-14T20:33:22.554Z,9.20
2023-03-14T20:35:56.085Z,14.77
2023-03-14T20:38:26.684Z,8.77
2023-03-14T20:40:57.519Z,8.52
2023-03-14T20:43:26.480Z,9.75
2023-03-14T20:45:57.206Z,9.93
2023-03-14T20:48:26.220Z,9.48
2023-03-14T20:50:55.008Z,10.23
2023-03-14T20:53:23.917Z,8.02
2023-03-14T20:55:52.737Z,11.77
2023-03-14T20:58:21.298Z,9.27
2023-03-14T21:00:50.190Z,7.93
2023-03-14T21:03:20.061Z,8.75
2023-03-14T21:05:49.521Z,7.82
2023-03-14T21:08:18.536Z,7.32
2023-03-14T21:10:48.266Z,5.45
2023-03-14T21:13:16.758Z,11.00
2023-03-14T21:15:45.593Z,9.45
2023-03-14T21:18:14.370Z,12.05
2023-03-14T21:20:44.539Z,12.07
2023-03-14T21:23:14.919Z,11.80
2023-03-14T21:25:44.798Z,7.88
2023-03-14T21:28:13.402Z,9.90
2023-03-14T21:30:42.407Z,12.27
2023-03-14T21:33:10.924Z,6.05
2023-03-14T21:35:39.559Z,10.48
2023-03-14T21:38:09.541Z,7.75
2023-03-14T21:40:38.509Z,6.18
2023-03-14T21:43:07.008Z,9.53
2023-03-14T21:45:36.260Z,9.35
2023-03-14T21:48:05.146Z,6.97
2023-03-14T21:50:34.706Z,9.27
2023-03-14T21:53:03.143Z,5.15
2023-03-14T21:55:33.044Z,8.23
2023-03-14T21:58:02.783Z,5.37
2023-03-14T22:00:31.365Z,7.78
2023-03-14T22:03:12.407Z,7.22
2023-03-14T22:05:44.061Z,8.27
2023-03-14T22:08:12.758Z,9.93
2023-03-14T22:10:46.487Z,11.75
2023-03-14T22:13:15.490Z,5.13
2023-03-14T22:15:45.774Z,8.15
2023-03-14T22:18:14.720Z,10.55
2023-03-14T22:20:43.370Z,13.27
2023-03-14T22:23:12.387Z,8.93
2023-03-14T22:25:41.794Z,7.28
2023-03-14T22:28:11.770Z,8.57
2023-03-14T22:30:40.761Z,6.80
2023-03-14T22:33:09.444Z,10.07
2023-03-14T22:35:38.009Z,8.60
2023-03-14T22:38:06.489Z,10.85
2023-03-14T22:40:34.957Z,16.05
2023-03-14T22:43:03.608Z,13.65
2023-03-14T22:45:33.530Z,8.70
2023-03-14T22:48:02.228Z,13.67
2023-03-14T22:50:30.683Z,9.52
2023-03-14T22:52:59.361Z,7.43
2023-03-14T22:55:28.267Z,9.40
2023-03-14T22:57:57.702Z,9.07
2023-03-14T23:00:27.049Z,6.07
2023-03-14T23:02:57.291Z,7.15
2023-03-14T23:05:25.777Z,9.80
2023-03-14T23:07:54.209Z,6.37
2023-03-14T23:10:22.766Z,9.23
2023-03-14T23:12:51.166Z,9.55
2023-03-14T23:15:19.655Z,10.07
2023-03-14T23:17:48.073Z,11.50
2023-03-14T23:20:18.039Z,8.63
2023-03-14T23:22:46.446Z,7.80
2023-03-14T23:25:14.893Z,6.90
2023-03-14T23:27:46.358Z,10.20
2023-03-14T23:30:15.625Z,9.20
2023-03-14T23:32:44.138Z,10.53
2023-03-14T23:35:12.657Z,7.67
2023-03-14T23:37:42.732Z,12.02
2023-03-14T23:40:11.890Z,10.80
2023-03-14T23:42:40.520Z,7.65
2023-03-14T23:45:09.504Z,9.35
2023-03-14T23:47:37.982Z,10.77
2023-03-14T23:50:06.720Z,10.10
2023-03-14T23:52:35.162Z,7.13
2023-03-14T23:55:05.021Z,12.33
2023-03-14T23:57:33.531Z,11.30
